Corona, South Dakota
Current Conditions -  °F | °C
As of 7:13 PM on Friday 28 Nov 2014 (Local Time) from KVVV Reporting Station
Broken Clouds Broken Clouds  
Wind Chill:   Ceiling: 1400
Heat Index: 16°   Visibility: 10mi
Dew Point: 12°   Wind: 8mph
Humidity: 86%   Direction: 130°SE
Pressure: 29.73"   Gusts: NA
Location:  45.33°N, 96.76°W
Report Text: KVVV 290113Z AUTO 13007KT 10SM BKN014 M09/M11 A2973 RMK AO2
Loading
Personal Weather Stations






























Interactive Weather Map New forecast layout! Learn more

10-Day Weather Forecast

Advertisements
Track Severe Weather on mobile